Time;durP1;ratioP1;P1;durP2;ratioP2;P2;SDS_P1;SDS_P2;PMS_P1;PMS_P2;Temp;Humidity;BMP_temperature;BMP_pressure;BME280_temperature;BME280_humidity;BME280_pressure;Samples;Min_cycle;Max_cycle;Signal;HPM_P1;HPM_P2
2022/10/06 00:00:26;;;;;;;6.10;4.35;;;;;;;12.48;100.00;100867.50;5053320;28;20036;-78
2022/10/06 00:02:52;;;;;;;6.05;3.80;;;;;;;12.45;100.00;100865.63;5054438;28;20030;-79
2022/10/06 00:05:17;;;;;;;6.00;3.78;;;;;;;12.42;100.00;100865.78;5036504;28;20025;-79
2022/10/06 00:07:42;;;;;;;5.05;4.07;;;;;;;12.38;100.00;100868.06;5036189;28;20137;-78
2022/10/06 00:10:08;;;;;;;5.43;3.88;;;;;;;12.34;100.00;100868.22;5036314;28;20056;-78
2022/10/06 00:12:42;;;;;;;8.15;4.13;;;;;;;12.32;100.00;100864.25;5052889;28;20029;-79
2022/10/06 00:15:10;;;;;;;6.47;4.00;;;;;;;12.28;100.00;100862.41;5053273;28;20028;-79
2022/10/06 00:17:35;;;;;;;7.72;4.30;;;;;;;12.25;100.00;100865.47;5054151;28;20028;-80
2022/10/06 00:20:01;;;;;;;6.25;4.40;;;;;;;12.22;100.00;100869.28;5054176;28;20021;-77
2022/10/06 00:22:35;;;;;;;7.15;4.32;;;;;;;12.16;100.00;100868.38;5054084;28;20055;-78
2022/10/06 00:25:01;;;;;;;6.78;4.07;;;;;;;12.11;100.00;100874.81;5052902;28;20377;-78
2022/10/06 00:27:35;;;;;;;8.88;4.50;;;;;;;12.02;100.00;100881.38;5054020;28;20104;-78
2022/10/06 00:30:05;;;;;;;8.07;4.68;;;;;;;11.95;100.00;100869.53;5054046;28;20489;-78
2022/10/06 00:32:30;;;;;;;4.82;4.32;;;;;;;11.88;100.00;100872.75;5053496;28;20051;-78
2022/10/06 00:34:57;;;;;;;5.40;3.60;;;;;;;11.81;100.00;100866.09;5052457;28;20489;-78
2022/10/06 00:37:23;;;;;;;6.70;4.40;;;;;;;11.80;100.00;100860.88;5053001;28;20027;-78
2022/10/06 00:39:48;;;;;;;4.93;3.60;;;;;;;11.79;100.00;100870.75;5052501;28;20021;-79
2022/10/06 00:42:28;;;;;;;9.35;4.50;;;;;;;11.77;100.00;100868.34;5053769;28;20108;-79
2022/10/06 00:44:55;;;;;;;5.70;3.88;;;;;;;11.71;100.00;100860.94;5053756;28;20090;-78
2022/10/06 00:47:21;;;;;;;6.80;4.82;;;;;;;11.71;100.00;100869.53;5035955;28;20529;-79
2022/10/06 00:49:47;;;;;;;5.50;4.25;;;;;;;11.67;100.00;100868.91;5053616;28;20059;-79
2022/10/06 00:52:16;;;;;;;10.57;4.55;;;;;;;11.65;100.00;100880.84;5035655;28;20386;-79
2022/10/06 00:54:42;;;;;;;6.78;4.03;;;;;;;11.60;100.00;100870.06;5053841;28;20074;-79
2022/10/06 00:57:07;;;;;;;5.95;3.72;;;;;;;11.60;100.00;100875.81;5052611;28;20458;-79
2022/10/06 00:59:34;;;;;;;5.57;3.75;;;;;;;11.59;100.00;100873.41;5053505;28;20036;-78
2022/10/06 01:02:01;;;;;;;5.15;3.90;;;;;;;11.60;100.00;100875.00;5053164;28;20481;-78
2022/10/06 01:04:30;;;;;;;9.05;4.15;;;;;;;11.59;100.00;100868.47;5053561;28;20496;-79
2022/10/06 01:06:57;;;;;;;4.80;3.85;;;;;;;11.66;100.00;100873.88;5052400;28;20100;-78
2022/10/06 01:09:23;;;;;;;4.05;3.35;;;;;;;11.69;100.00;100877.81;5051848;28;20374;-79
2022/10/06 01:11:50;;;;;;;6.43;3.72;;;;;;;11.76;100.00;100878.22;5051275;28;20032;-77
2022/10/06 01:14:18;;;;;;;4.65;3.25;;;;;;;11.84;100.00;100884.38;5049700;28;20062;-77
2022/10/06 01:16:46;;;;;;;6.18;3.20;;;;;;;11.92;100.00;100881.94;5051204;28;20048;-78
2022/10/06 01:19:30;;;;;;;11.18;3.45;;;;;;;11.97;100.00;100882.06;5049934;28;20532;-77
2022/10/06 01:21:57;;;;;;;4.10;3.10;;;;;;;12.06;100.00;100879.13;5051471;28;20040;-77
2022/10/06 01:24:22;;;;;;;4.97;3.53;;;;;;;12.13;100.00;100883.69;5050920;28;20025;-75
2022/10/06 01:26:49;;;;;;;5.35;3.67;;;;;;;12.17;100.00;100876.50;5049731;28;20481;-78
2022/10/06 01:29:15;;;;;;;6.30;4.20;;;;;;;12.22;100.00;100887.28;5033168;28;20033;-78
2022/10/06 01:31:40;;;;;;;5.00;3.60;;;;;;;12.26;100.00;100885.00;5049884;28;20029;-77
2022/10/06 01:34:05;;;;;;;6.95;3.80;;;;;;;12.25;100.00;100880.59;5049666;28;20017;-75
2022/10/06 01:36:31;;;;;;;5.00;3.65;;;;;;;12.29;100.00;100888.97;5049654;28;20025;-77
2022/10/06 01:38:56;;;;;;;5.28;3.35;;;;;;;12.28;100.00;100888.19;5049592;28;20228;-76
2022/10/06 01:41:23;;;;;;;4.22;3.17;;;;;;;12.29;100.00;100871.78;5033084;28;20052;-79
2022/10/06 01:43:49;;;;;;;5.78;3.42;;;;;;;12.33;100.00;100883.84;5051831;28;20052;-78
2022/10/06 01:46:14;;;;;;;5.05;3.38;;;;;;;12.36;100.00;100882.88;5054460;28;20083;-79
2022/10/06 01:48:40;;;;;;;10.20;4.70;;;;;;;12.36;100.00;100882.88;5039097;28;20434;-79
2022/10/06 01:51:07;;;;;;;7.93;4.57;;;;;;;12.40;100.00;100889.22;5056929;28;20021;-79
2022/10/06 01:53:33;;;;;;;7.15;5.15;;;;;;;12.43;100.00;100884.56;5055537;28;20082;-79
2022/10/06 01:55:59;;;;;;;5.25;4.35;;;;;;;12.48;100.00;100889.63;5055538;28;20021;-78
2022/10/06 01:58:24;;;;;;;7.18;4.50;;;;;;;12.49;100.00;100902.69;5056805;28;20058;-78
2022/10/06 02:00:49;;;;;;;11.88;4.72;;;;;;;12.52;100.00;100898.81;5056826;28;20029;-78
2022/10/06 02:03:15;;;;;;;5.15;4.07;;;;;;;12.53;100.00;100894.69;5056397;28;20122;-78
2022/10/06 02:05:40;;;;;;;7.47;3.97;;;;;;;12.53;100.00;100897.53;5056982;28;20075;-78
2022/10/06 02:08:08;;;;;;;6.45;3.90;;;;;;;12.54;100.00;100899.94;5056909;28;20412;-78
2022/10/06 02:10:34;;;;;;;6.75;4.13;;;;;;;12.53;100.00;100906.16;5056471;28;20029;-77
2022/10/06 02:12:59;;;;;;;4.25;3.67;;;;;;;12.51;100.00;100909.50;5055646;28;20401;-77
2022/10/06 02:15:26;;;;;;;7.72;3.40;;;;;;;12.51;100.00;100911.56;5055405;28;20056;-78
2022/10/06 02:17:53;;;;;;;3.78;3.35;;;;;;;12.49;100.00;100911.28;5038870;28;20085;-77
2022/10/06 02:20:18;;;;;;;4.63;3.03;;;;;;;12.46;100.00;100906.53;5055539;28;20032;-78
2022/10/06 02:22:43;;;;;;;4.43;3.17;;;;;;;12.43;100.00;100911.16;5056374;28;20029;-77
2022/10/06 02:25:10;;;;;;;6.18;3.83;;;;;;;12.39;100.00;100912.66;5056261;28;20029;-78
2022/10/06 02:27:36;;;;;;;5.55;3.65;;;;;;;12.35;100.00;100921.41;5055110;28;20040;-78
2022/10/06 02:30:03;;;;;;;6.57;3.58;;;;;;;12.28;100.00;100913.19;5038397;28;20021;-78
2022/10/06 02:32:34;;;;;;;8.00;3.70;;;;;;;12.23;100.00;100922.44;5055065;28;20123;-78
2022/10/06 02:34:59;;;;;;;5.03;3.97;;;;;;;12.18;100.00;100912.47;5056298;28;20036;-78
2022/10/06 02:37:25;;;;;;;4.40;3.83;;;;;;;12.10;100.00;100921.94;5056252;28;20300;-78
2022/10/06 02:39:50;;;;;;;6.53;3.60;;;;;;;12.08;100.00;100927.34;5055987;28;20094;-78
2022/10/06 02:42:15;;;;;;;6.28;3.88;;;;;;;12.02;100.00;100927.22;5056342;28;20032;-78
2022/10/06 02:44:41;;;;;;;7.03;3.97;;;;;;;11.95;100.00;100936.19;5055981;28;20032;-78
2022/10/06 02:47:13;;;;;;;7.38;4.00;;;;;;;11.91;100.00;100938.44;5056074;28;20020;-79
2022/10/06 02:49:38;;;;;;;5.22;3.90;;;;;;;11.87;100.00;100934.16;5055883;28;20505;-78
2022/10/06 02:52:04;;;;;;;5.72;3.70;;;;;;;11.79;100.00;100930.88;5055663;28;20029;-79
2022/10/06 02:54:29;;;;;;;4.88;3.53;;;;;;;11.79;100.00;100942.31;5055813;28;20020;-79
2022/10/06 02:56:55;;;;;;;7.00;3.78;;;;;;;11.76;100.00;100937.59;5055666;28;20090;-79
2022/10/06 02:59:20;;;;;;;9.40;4.13;;;;;;;11.70;100.00;100934.59;5054480;28;20021;-79
2022/10/06 03:01:46;;;;;;;4.95;3.30;;;;;;;11.71;100.00;100946.84;5054400;28;20025;-79
2022/10/06 03:04:11;;;;;;;5.22;3.90;;;;;;;11.66;100.00;100939.72;5053956;28;20493;-79
2022/10/06 03:06:36;;;;;;;6.22;3.85;;;;;;;11.69;100.00;100953.03;5055455;28;20024;-79
2022/10/06 03:09:04;;;;;;;5.10;3.70;;;;;;;11.68;100.00;100957.19;5055707;28;20469;-79
2022/10/06 03:11:31;;;;;;;8.55;4.18;;;;;;;11.68;100.00;100959.25;5037544;28;20031;-79
2022/10/06 03:13:57;;;;;;;5.57;3.50;;;;;;;11.67;100.00;100957.66;5037547;28;20028;-79
2022/10/06 03:16:27;;;;;;;7.35;3.28;;;;;;;11.66;100.00;100954.03;5037450;28;20143;-78
2022/10/06 03:18:53;;;;;;;7.45;3.40;;;;;;;11.68;100.00;100962.09;5055391;28;20100;-78
2022/10/06 03:21:24;;;;;;;4.65;3.92;;;;;;;11.69;100.00;100966.56;5053913;28;20111;-80
2022/10/06 03:23:52;;;;;;;5.40;3.30;;;;;;;11.69;100.00;100972.28;5055310;28;20029;-78
2022/10/06 03:26:20;;;;;;;6.28;3.72;;;;;;;11.71;100.00;100964.00;5055428;28;20045;-79
2022/10/06 03:28:46;;;;;;;8.07;3.78;;;;;;;11.71;100.00;100975.47;5053828;28;20071;-78
2022/10/06 03:31:11;;;;;;;4.40;3.42;;;;;;;11.71;100.00;100978.34;5053996;28;20029;-79
2022/10/06 03:33:37;;;;;;;5.60;3.47;;;;;;;11.71;100.00;100976.25;5054918;28;20468;-79
2022/10/06 03:36:03;;;;;;;4.65;3.60;;;;;;;11.68;100.00;100971.50;5054259;28;20028;-78
2022/10/06 03:38:30;;;;;;;7.10;3.15;;;;;;;11.69;100.00;100975.94;5053713;28;20028;-79
2022/10/06 03:41:03;;;;;;;4.82;4.10;;;;;;;11.71;100.00;100978.34;5055206;28;20025;-78
2022/10/06 03:43:28;;;;;;;4.82;3.85;;;;;;;11.75;100.00;100981.81;5054642;28;20424;-78
2022/10/06 03:45:55;;;;;;;6.25;3.47;;;;;;;11.81;100.00;100986.38;5054689;28;20025;-78
2022/10/06 03:48:21;;;;;;;3.78;3.47;;;;;;;11.88;100.00;100985.22;5054927;28;20048;-78
2022/10/06 03:50:53;;;;;;;6.40;3.97;;;;;;;11.92;100.00;100980.09;5053498;28;20385;-79
2022/10/06 03:53:24;;;;;;;5.70;3.78;;;;;;;11.95;100.00;100982.00;5053633;28;20067;-79
2022/10/06 03:55:50;;;;;;;4.85;4.28;;;;;;;11.91;100.00;100987.13;5053218;28;20025;-78
2022/10/06 03:58:17;;;;;;;6.43;4.15;;;;;;;11.89;100.00;100986.03;5054475;28;20090;-79
2022/10/06 04:00:42;;;;;;;3.80;3.40;;;;;;;11.87;100.00;100994.28;5054626;28;20469;-78
2022/10/06 04:03:08;;;;;;;4.75;3.92;;;;;;;11.83;100.00;100988.75;5036288;28;20112;-78
2022/10/06 04:05:33;;;;;;;7.38;3.83;;;;;;;11.81;100.00;100999.91;5053630;28;20021;-78
2022/10/06 04:07:58;;;;;;;4.65;3.88;;;;;;;11.78;100.00;100998.00;5053950;28;20159;-78
2022/10/06 04:10:24;;;;;;;5.65;3.97;;;;;;;11.73;100.00;100998.66;5053267;28;20120;-79
2022/10/06 04:12:49;;;;;;;7.50;3.95;;;;;;;11.76;100.00;100997.72;5052974;28;20104;-79
2022/10/06 04:15:14;;;;;;;5.38;3.60;;;;;;;11.77;100.00;101007.88;5054712;28;20119;-78
2022/10/06 04:17:40;;;;;;;5.15;3.60;;;;;;;11.75;100.00;101010.44;5053965;28;20100;-78
2022/10/06 04:20:06;;;;;;;7.20;3.88;;;;;;;11.77;100.00;101017.25;5053104;28;20032;-78
2022/10/06 04:22:33;;;;;;;5.75;3.97;;;;;;;11.75;100.00;101014.09;5053614;28;20029;-79
2022/10/06 04:24:58;;;;;;;5.85;3.70;;;;;;;11.76;100.00;101024.25;5052566;28;20036;-78
2022/10/06 04:27:32;;;;;;;4.53;3.58;;;;;;;11.76;100.00;101021.38;5054534;28;20532;-79
2022/10/06 04:30:00;;;;;;;10.00;3.90;;;;;;;11.74;100.00;101018.22;5052779;28;20117;-78
2022/10/06 04:32:34;;;;;;;6.03;3.60;;;;;;;11.75;100.00;101019.81;5052327;28;20037;-78
2022/10/06 04:34:59;;;;;;;6.03;3.50;;;;;;;11.74;100.00;101018.22;5052712;28;20462;-78
2022/10/06 04:37:27;;;;;;;5.03;3.53;;;;;;;11.66;100.00;101005.56;5055481;28;20055;-77
2022/10/06 04:39:53;;;;;;;9.50;3.95;;;;;;;11.72;100.00;101022.84;5039481;28;20098;-78
2022/10/06 04:42:19;;;;;;;5.13;3.67;;;;;;;11.71;100.00;101024.13;5055623;28;20029;-77
2022/10/06 04:44:46;;;;;;;6.30;3.92;;;;;;;11.71;100.00;101035.59;5039107;28;20048;-77
2022/10/06 04:47:11;;;;;;;8.13;4.28;;;;;;;11.70;100.00;101042.59;5053392;28;20032;-77
2022/10/06 04:49:36;;;;;;;11.77;3.90;;;;;;;11.70;100.00;101049.09;5052751;28;20029;-76
2022/10/06 04:52:03;;;;;;;12.05;3.78;;;;;;;11.69;100.00;101050.38;5053333;28;20072;-76
2022/10/06 04:54:29;;;;;;;8.35;3.83;;;;;;;11.67;100.00;101052.91;5038243;28;20037;-77
2022/10/06 04:56:55;;;;;;;10.48;4.45;;;;;;;11.64;100.00;101044.50;5053221;28;20094;-79
2022/10/06 05:00:21;;;;;;;5.45;4.00;;;;;;;11.65;100.00;101052.63;5054487;28;20029;-76
2022/10/06 05:02:07;;;;;;;11.82;6.60;;;;;;;11.61;100.00;101063.47;5060434;28;20037;-79
2022/10/06 05:04:33;;;;;;;8.02;4.32;;;;;;;11.56;100.00;101061.25;5057409;28;20098;-79
2022/10/06 05:07:01;;;;;;;5.70;4.35;;;;;;;11.56;100.00;101066.19;5058271;28;20041;-79
2022/10/06 05:09:26;;;;;;;12.02;4.55;;;;;;;11.52;100.00;101072.06;5054277;28;20389;-82
2022/10/06 05:11:51;;;;;;;12.45;4.30;;;;;;;11.52;100.00;101077.78;5053408;28;20906;-77
2022/10/06 05:14:17;;;;;;;6.38;5.07;;;;;;;11.49;100.00;101083.66;5053931;28;20546;-76
2022/10/06 05:16:43;;;;;;;9.40;3.80;;;;;;;11.48;100.00;101082.06;5036562;28;20100;-78
2022/10/06 05:19:10;;;;;;;7.28;4.50;;;;;;;11.43;100.00;101074.94;5054870;28;20125;-79
2022/10/06 05:21:36;;;;;;;6.45;4.82;;;;;;;11.44;100.00;101081.47;5057982;28;20138;-79
2022/10/06 05:24:02;;;;;;;7.10;4.15;;;;;;;11.46;100.00;101096.09;5057312;28;20029;-79
2022/10/06 05:26:29;;;;;;;6.18;4.25;;;;;;;11.43;100.00;101092.09;5058948;28;20519;-78
2022/10/06 05:28:55;;;;;;;5.85;4.00;;;;;;;11.48;100.00;101099.25;5040557;28;20056;-78
2022/10/06 05:31:26;;;;;;;6.47;4.47;;;;;;;11.51;100.00;101098.31;5024095;28;20485;-79
2022/10/06 05:33:54;;;;;;;6.43;4.07;;;;;;;11.63;100.00;101100.16;5039883;28;20074;-79
2022/10/06 05:36:21;;;;;;;9.68;4.00;;;;;;;11.89;100.00;101092.78;5039067;28;20037;-76
2022/10/06 05:38:47;;;;;;;16.10;4.97;;;;;;;12.20;100.00;101106.81;5037137;28;20491;-79
2022/10/06 05:41:17;;;;;;;8.57;4.35;;;;;;;12.62;100.00;101101.84;5055986;28;20029;-79
2022/10/06 05:43:43;;;;;;;5.00;4.03;;;;;;;13.02;100.00;101097.72;5056386;28;20028;-79
2022/10/06 05:46:19;;;;;;;12.32;4.22;;;;;;;13.32;100.00;101096.50;5054891;28;20287;-79
2022/10/06 05:48:53;;;;;;;7.10;3.83;;;;;;;13.55;100.00;101097.72;5054014;28;20482;-78
2022/10/06 05:51:19;;;;;;;95.97;16.73;;;;;;;13.53;100.00;101103.97;5053575;28;20033;-79
2022/10/06 05:53:45;;;;;;;8.50;5.13;;;;;;;13.44;100.00;101109.75;5053862;28;20087;-79
2022/10/06 05:56:16;;;;;;;16.63;5.03;;;;;;;13.31;100.00;101115.00;5055799;28;20031;-78
2022/10/06 05:58:43;;;;;;;12.73;4.40;;;;;;;13.20;100.00;101111.91;5056596;28;20029;-77
2022/10/06 06:01:11;;;;;;;6.93;4.13;;;;;;;13.16;100.00;101121.97;5054821;28;20116;-78
2022/10/06 06:03:37;;;;;;;9.57;4.45;;;;;;;13.12;100.00;101119.31;5039218;28;20056;-79
2022/10/06 06:06:10;;;;;;;232.85;35.85;;;;;;;13.09;100.00;101134.66;5057537;28;20428;-79
2022/10/06 06:08:35;;;;;;;71.38;12.88;;;;;;;13.05;100.00;101136.88;5056005;28;20032;-76
2022/10/06 06:11:06;;;;;;;10.90;5.32;;;;;;;13.09;100.00;101146.13;5054849;28;20107;-79
2022/10/06 06:13:32;;;;;;;10.15;5.38;;;;;;;13.10;100.00;101157.09;5056235;28;20359;-78
2022/10/06 06:16:03;;;;;;;40.15;8.60;;;;;;;13.12;100.00;101154.53;5057451;28;20032;-76
2022/10/06 06:18:35;;;;;;;46.10;10.40;;;;;;;13.14;100.00;101159.81;5057900;28;20033;-77
2022/10/06 06:21:02;;;;;;;340.58;47.17;;;;;;;13.19;100.00;101164.06;5060949;28;20028;-77
2022/10/06 06:23:33;;;;;;;37.85;8.25;;;;;;;13.25;100.00;101162.09;5060103;28;20067;-77
2022/10/06 06:26:00;;;;;;;40.97;10.40;;;;;;;13.29;100.00;101160.63;5063004;28;20029;-76
2022/10/06 06:28:29;;;;;;;129.00;18.95;;;;;;;13.42;100.00;101171.84;5055552;28;20120;-79
2022/10/06 06:31:01;;;;;;;132.68;23.77;;;;;;;13.54;100.00;101162.22;5053947;28;20029;-76
2022/10/06 06:33:28;;;;;;;55.40;11.63;;;;;;;13.68;100.00;101178.66;5055225;28;20507;-78
2022/10/06 06:35:53;;;;;;;93.30;18.00;;;;;;;13.82;100.00;101191.44;5054624;28;20025;-78
2022/10/06 06:38:19;;;;;;;218.35;33.72;;;;;;;13.97;100.00;101195.13;5056084;28;20031;-77
2022/10/06 06:40:44;;;;;;;101.13;17.90;;;;;;;14.09;100.00;101188.28;5057910;28;20024;-79
2022/10/06 06:43:11;;;;;;;24.02;6.97;;;;;;;14.23;100.00;101186.69;5060744;28;20034;-77
2022/10/06 06:45:37;;;;;;;66.68;11.75;;;;;;;14.41;100.00;101193.00;5061977;28;20104;-78
2022/10/06 06:48:04;;;;;;;138.10;23.27;;;;;;;15.37;100.00;101198.84;5057592;28;20064;-78
2022/10/06 06:50:30;;;;;;;144.45;23.92;;;;;;;17.16;100.00;101192.59;5060104;28;20032;-78
2022/10/06 06:52:56;;;;;;;16.17;4.93;;;;;;;19.08;100.00;101194.69;5057316;28;20088;-78
2022/10/06 06:55:21;;;;;;;210.45;35.75;;;;;;;20.76;100.00;101193.19;5041749;28;20060;-78
2022/10/06 06:57:48;;;;;;;25.58;6.15;;;;;;;22.32;100.00;101202.81;5062009;28;20053;-77
2022/10/06 07:00:15;;;;;;;142.63;23.10;;;;;;;23.55;88.17;101204.28;5060292;28;20396;-77
2022/10/06 07:02:41;;;;;;;39.05;7.85;;;;;;;24.61;77.83;101211.34;5056116;28;20056;-76
2022/10/06 07:05:06;;;;;;;106.20;17.40;;;;;;;25.45;72.66;101217.84;5054438;28;20029;-76
2022/10/06 07:07:32;;;;;;;78.57;13.07;;;;;;;26.34;65.77;101236.44;5054185;28;20036;-75
2022/10/06 07:09:57;;;;;;;23.88;6.38;;;;;;;27.12;56.51;101244.75;5055335;28;20441;-76
2022/10/06 07:12:24;;;;;;;13.88;3.08;;;;;;;27.53;54.96;101249.41;5055096;28;20027;-76
2022/10/06 07:25:45;;;;;;;55.83;8.93;;;;;;;29.79;44.15;101263.22;5053737;28;20500;-76
2022/10/06 07:28:11;;;;;;;10.15;3.40;;;;;;;29.44;41.60;101274.19;5052962;28;20033;-75
2022/10/06 07:30:37;;;;;;;626.42;123.93;;;;;;;28.97;43.57;101271.47;5054324;28;20473;-75
2022/10/06 07:33:04;;;;;;;16.42;5.00;;;;;;;28.10;44.99;101266.47;5053040;28;20029;-77
2022/10/06 07:35:29;;;;;;;37.95;5.97;;;;;;;27.21;46.81;101275.66;5053373;28;20036;-76
2022/10/06 07:37:56;;;;;;;10.27;3.28;;;;;;;26.30;49.09;101271.22;5070076;28;20032;-75
2022/10/06 07:40:22;;;;;;;11.57;3.42;;;;;;;25.37;50.85;101270.50;5072760;28;20028;-74
2022/10/06 07:42:47;;;;;;;142.50;23.05;;;;;;;24.72;55.08;101274.59;5009626;28;20478;-77
2022/10/06 07:45:43;;;;;;;5.70;3.10;;;;;;;24.15;58.25;101264.78;5033579;28;20030;-75
2022/10/06 07:48:13;;;;;;;21.60;5.55;;;;;;;23.62;60.54;101261.97;5032255;28;20036;-75
2022/10/06 07:50:39;;;;;;;10.32;3.40;;;;;;;23.24;63.79;101263.50;5034892;28;20091;-75
2022/10/06 07:53:07;;;;;;;8.30;3.00;;;;;;;22.95;66.10;101262.44;5033544;28;20021;-75
2022/10/06 07:55:38;;;;;;;7.03;2.75;;;;;;;22.76;67.04;101268.31;5016151;28;20025;-75
2022/10/06 07:58:24;;;;;;;10.82;3.38;;;;;;;22.60;69.24;101280.25;5031526;28;20033;-75
2022/10/06 08:00:53;;;;;;;4.78;2.40;;;;;;;22.41;71.33;101275.25;5031418;28;20038;-75
2022/10/06 08:03:19;;;;;;;14.50;3.92;;;;;;;22.24;73.23;101273.91;5032561;28;20052;-74
2022/10/06 08:05:55;;;;;;;15.63;3.63;;;;;;;22.07;75.24;101282.88;5032527;28;20394;-75
2022/10/06 08:08:21;;;;;;;26.25;5.18;;;;;;;21.91;76.33;101280.97;5033182;28;20025;-75
2022/10/06 08:10:54;;;;;;;6.18;3.03;;;;;;;21.96;77.79;101292.53;5032404;28;20025;-75
2022/10/06 08:13:20;;;;;;;6.55;3.13;;;;;;;22.12;78.66;101299.47;5031242;28;20072;-75
2022/10/06 08:15:50;;;;;;;11.27;3.50;;;;;;;22.32;78.28;101293.09;5030714;28;20497;-75
2022/10/06 08:18:16;;;;;;;4.72;1.98;;;;;;;22.28;76.61;101304.28;5031922;28;20029;-75
2022/10/06 08:20:42;;;;;;;6.22;2.47;;;;;;;22.14;76.85;101308.44;5014669;28;20085;-75
2022/10/06 08:23:11;;;;;;;3.50;2.25;;;;;;;21.96;78.31;101312.13;5050326;28;20457;-74
2022/10/06 08:25:41;;;;;;;3.95;2.30;;;;;;;21.71;78.81;101316.41;5053767;28;20086;-75
2022/10/06 08:28:11;;;;;;;5.13;1.90;;;;;;;21.39;79.42;101311.16;5052671;28;20036;-75
2022/10/06 08:30:37;;;;;;;4.85;2.30;;;;;;;21.34;80.96;101319.94;5035857;28;20047;-75
2022/10/06 08:33:04;;;;;;;2.70;2.00;;;;;;;21.16;81.30;101319.34;5052633;28;20044;-75
2022/10/06 08:35:30;;;;;;;5.68;1.83;;;;;;;20.98;83.45;101317.16;5053690;28;20099;-75
2022/10/06 08:37:56;;;;;;;6.20;2.20;;;;;;;20.86;84.98;101318.56;5052312;28;20174;-75
2022/10/06 08:40:21;;;;;;;6.40;2.72;;;;;;;20.82;85.45;101326.78;5052810;28;20514;-75
2022/10/06 08:42:52;;;;;;;71.10;11.05;;;;;;;20.81;85.99;101325.19;5053121;28;20044;-74
2022/10/06 08:45:40;;;;;;;22.80;4.75;;;;;;;20.63;86.44;101323.72;5052127;28;20115;-75
2022/10/06 08:48:12;;;;;;;355.77;47.05;;;;;;;20.34;88.85;101331.06;5052325;28;20147;-75
2022/10/06 08:50:48;;;;;;;8.07;2.03;;;;;;;20.05;90.51;101333.84;5052798;28;20029;-74
2022/10/06 08:53:45;;;;;;;26.85;5.28;;;;;;;19.86;91.98;101342.31;5053388;28;20059;-75
2022/10/06 08:56:26;;;;;;;8.85;2.40;;;;;;;19.65;94.46;101341.09;5052074;28;20036;-75
2022/10/06 08:58:54;;;;;;;4.68;2.25;;;;;;;19.52;96.02;101351.13;5051772;28;20036;-74
2022/10/06 09:01:23;;;;;;;6.22;2.13;;;;;;;19.42;97.32;101363.53;5051935;28;20040;-75
2022/10/06 09:03:55;;;;;;;5.32;1.77;;;;;;;19.28;99.35;101362.50;5051804;28;20072;-75
2022/10/06 09:06:30;;;;;;;105.78;13.30;;;;;;;19.34;99.81;101365.41;5035831;28;20123;-75
2022/10/06 09:09:05;;;;;;;11.25;2.85;;;;;;;19.42;100.00;101367.22;5053118;28;20037;-77
2022/10/06 09:12:12;;;;;;;4.18;2.30;;;;;;;19.61;99.59;101369.59;5035081;28;20078;-75
2022/10/06 09:15:04;;;;;;;5.88;2.03;;;;;;;19.68;98.75;101380.63;5054309;28;20044;-75
2022/10/06 09:17:36;;;;;;;12.70;4.38;;;;;;;19.75;97.27;101383.78;5056341;28;20032;-76
2022/10/06 09:20:05;;;;;;;11.10;3.55;;;;;;;19.86;99.19;101383.72;5053444;28;20102;-76
2022/10/06 09:22:31;;;;;;;31.90;6.22;;;;;;;20.12;100.00;101386.31;5037537;28;20048;-78
2022/10/06 09:25:15;;;;;;;12.98;3.65;;;;;;;20.54;98.93;101384.25;5037187;28;20029;-77
2022/10/06 09:27:59;;;;;;;7.85;3.13;;;;;;;20.85;94.60;101385.91;5054170;28;20397;-78
2022/10/06 09:30:41;;;;;;;11.00;3.00;;;;;;;21.04;93.63;101396.34;5052519;28;20025;-78
2022/10/06 09:33:17;;;;;;;18.65;4.00;;;;;;;21.10;92.39;101393.41;5051799;28;20422;-79
2022/10/06 09:36:06;;;;;;;12.15;2.75;;;;;;;21.01;90.77;101405.34;5035880;28;20033;-79
2022/10/06 09:38:55;;;;;;;9.90;2.80;;;;;;;20.71;90.04;101405.31;5051950;28;20117;-78
2022/10/06 09:41:25;;;;;;;12.82;3.08;;;;;;;20.38;91.25;101412.84;5035248;28;20033;-79
2022/10/06 09:44:03;;;;;;;16.35;3.88;;;;;;;20.06;93.55;101413.78;5051789;28;20389;-77
2022/10/06 09:46:40;;;;;;;17.17;4.30;;;;;;;19.77;95.46;101420.94;5052192;28;20500;-79
2022/10/06 09:49:18;;;;;;;27.88;5.75;;;;;;;19.47;98.23;101433.13;5053526;28;20048;-79
2022/10/06 09:52:13;;;;;;;19.75;3.78;;;;;;;19.15;100.00;101434.72;5052442;28;20029;-79
2022/10/06 09:54:42;;;;;;;377.85;56.42;;;;;;;18.80;100.00;101429.38;5033945;28;20025;-84
2022/10/06 09:57:28;;;;;;;41.83;7.97;;;;;;;18.72;100.00;101437.00;5019436;28;20040;-79
2022/10/06 09:59:56;;;;;;;17.48;3.80;;;;;;;18.78;100.00;101432.00;5033534;28;20025;-79
2022/10/06 10:02:38;;;;;;;7.30;2.80;;;;;;;18.83;100.00;101437.00;5048312;28;20521;-79
2022/10/06 10:05:15;;;;;;;9.60;2.72;;;;;;;18.75;100.00;101443.84;5015910;28;20383;-80
2022/10/06 10:08:00;;;;;;;8.90;2.92;;;;;;;18.78;100.00;101442.78;5053966;28;20121;-81
2022/10/06 10:10:27;;;;;;;10.43;2.75;;;;;;;18.84;100.00;101455.16;5036417;28;20038;-80
2022/10/06 10:12:56;;;;;;;11.45;3.10;;;;;;;18.94;100.00;101439.94;5048540;28;20033;-80
2022/10/06 10:15:37;;;;;;;15.25;3.30;;;;;;;19.07;100.00;101448.09;5055508;28;20037;-80
2022/10/06 10:18:10;;;;;;;6.80;3.28;;;;;;;19.17;100.00;101469.75;5055400;28;20036;-80
2022/10/06 10:21:03;;;;;;;5.43;2.47;;;;;;;19.23;100.00;101469.75;5039983;28;20036;-81
2022/10/06 10:23:32;;;;;;;17.48;3.42;;;;;;;19.23;100.00;101476.34;5055072;28;20124;-80
2022/10/06 10:26:25;;;;;;;5.00;2.80;;;;;;;19.17;100.00;101492.91;5055468;28;20020;-81
2022/10/06 10:29:29;;;;;;;12.00;2.97;;;;;;;19.11;100.00;101495.00;5055425;28;20021;-81
2022/10/06 10:32:03;;;;;;;11.23;2.92;;;;;;;18.94;100.00;101502.88;5057139;28;20037;-81
2022/10/06 10:35:04;;;;;;;7.25;2.47;;;;;;;18.71;100.00;101515.69;5057799;28;20458;-80
2022/10/06 10:37:52;;;;;;;12.03;2.00;;;;;;;18.46;99.45;101523.22;5056927;28;20150;-81
2022/10/06 10:40:46;;;;;;;6.82;1.85;;;;;;;18.25;98.50;101514.66;5056949;28;20449;-76
2022/10/06 10:43:33;;;;;;;7.30;1.70;;;;;;;18.03;99.13;101520.31;5056169;28;20033;-78
2022/10/06 10:46:17;;;;;;;5.97;2.45;;;;;;;17.87;98.62;101528.88;5054705;28;20056;-78
2022/10/06 10:49:05;;;;;;;9.52;2.08;;;;;;;17.73;99.23;101534.28;5056113;28;20037;-82
2022/10/06 10:51:41;;;;;;;3.10;1.25;;;;;;;17.62;99.59;101527.63;5056575;28;20028;-78
2022/10/06 10:54:54;;;;;;;4.97;1.40;;;;;;;17.46;100.00;101537.72;5054934;28;20027;-78
2022/10/06 10:57:24;;;;;;;7.00;1.58;;;;;;;17.34;100.00;101541.78;5055625;28;20045;-78
2022/10/06 11:00:02;;;;;;;2.15;1.25;;;;;;;17.22;100.00;101540.09;5054921;28;20028;-78
2022/10/06 11:02:29;;;;;;;4.75;1.52;;;;;;;17.16;100.00;101539.22;5055328;28;20041;-79
2022/10/06 11:05:04;;;;;;;7.20;1.50;;;;;;;17.17;100.00;101546.59;5055692;28;20057;-79
2022/10/06 11:07:44;;;;;;;12.63;2.45;;;;;;;17.25;100.00;101553.50;5054182;28;20035;-77
2022/10/06 11:10:25;;;;;;;5.30;1.60;;;;;;;17.33;100.00;101543.09;5042595;28;20074;-77
2022/10/06 11:13:15;;;;;;;2.60;1.33;;;;;;;17.41;100.00;101553.69;5068422;28;20089;-77
2022/10/06 11:16:00;;;;;;;9.40;2.50;;;;;;;17.44;98.81;101562.66;5064907;28;20408;-78
2022/10/06 11:19:02;;;;;;;12.38;2.17;;;;;;;17.40;96.07;101562.84;5065885;28;20039;-78
2022/10/06 11:22:13;;;;;;;3.80;1.00;;;;;;;17.48;95.42;101560.34;5065972;28;20024;-76
2022/10/06 11:25:18;;;;;;;4.88;1.20;;;;;;;17.72;94.90;101563.72;5056024;28;20098;-73
2022/10/06 11:28:18;;;;;;;3.67;1.00;;;;;;;18.02;94.74;101564.22;5055766;28;20041;-74
2022/10/06 11:31:02;;;;;;;7.18;1.65;;;;;;;18.38;90.67;101574.22;5054320;28;20393;-74
2022/10/06 11:33:53;;;;;;;6.20;1.23;;;;;;;18.52;82.26;101591.41;5054389;28;20017;-74
2022/10/06 11:36:35;;;;;;;8.88;1.25;;;;;;;18.58;80.41;101597.22;5054893;28;20090;-73
2022/10/06 11:39:14;;;;;;;4.78;0.82;;;;;;;18.55;76.98;101596.19;5055039;28;20028;-74
2022/10/06 11:42:08;;;;;;;4.30;0.80;;;;;;;18.53;76.80;101601.69;5053756;28;20029;-74
2022/10/06 11:44:45;;;;;;;5.07;1.00;;;;;;;18.42;78.63;101595.84;5053553;28;20033;-73